Time;durP1;ratioP1;P1;durP2;ratioP2;P2;SDS_P1;SDS_P2;PMS_P1;PMS_P2;Temp;Humidity;BMP_temperature;BMP_pressure;BME280_temperature;BME280_humidity;BME280_pressure;Samples;Min_cycle;Max_cycle;Signal;HPM_P1;HPM_P2
2021/08/18 00:01:13;;;;;;;7.22;4.82;;;14.30;94.30;;;;;;5104248;28;20036;-83
2021/08/18 00:03:40;;;;;;;5.15;3.20;;;14.30;94.50;;;;;;5109691;28;20313;-82
2021/08/18 00:06:06;;;;;;;4.90;2.85;;;14.20;94.60;;;;;;5117179;28;20062;-84
2021/08/18 00:08:32;;;;;;;8.25;3.17;;;14.20;94.70;;;;;;5100667;28;20039;-83
2021/08/18 00:10:57;;;;;;;5.03;3.15;;;14.10;94.80;;;;;;5113753;28;20066;-83
2021/08/18 00:13:24;;;;;;;4.40;3.15;;;14.10;95.00;;;;;;5100612;28;20044;-82
2021/08/18 00:15:50;;;;;;;6.85;4.05;;;14.10;95.10;;;;;;5118628;28;20036;-84
2021/08/18 00:18:16;;;;;;;5.43;3.15;;;14.00;95.20;;;;;;5109036;28;20097;-83
2021/08/18 00:20:42;;;;;;;4.25;2.83;;;14.00;95.30;;;;;;5118830;28;20051;-83
2021/08/18 00:23:07;;;;;;;5.63;3.40;;;14.00;95.40;;;;;;5112244;28;20043;-83
2021/08/18 00:25:34;;;;;;;5.88;3.55;;;14.00;95.40;;;;;;5115224;28;20035;-83
2021/08/18 00:28:00;;;;;;;9.35;4.38;;;14.00;95.50;;;;;;5113184;28;20032;-82
2021/08/18 00:30:25;;;;;;;6.13;3.72;;;14.00;95.50;;;;;;5098208;28;20032;-83
2021/08/18 00:32:51;;;;;;;5.65;3.53;;;14.00;95.40;;;;;;5104376;28;20035;-83
2021/08/18 00:35:17;;;;;;;7.85;3.60;;;14.00;95.50;;;;;;5104075;28;20028;-83
2021/08/18 00:37:43;;;;;;;5.68;3.58;;;14.00;95.40;;;;;;5106843;28;20039;-83
2021/08/18 00:40:09;;;;;;;5.85;3.40;;;14.00;95.60;;;;;;5111747;28;20040;-83
2021/08/18 00:42:35;;;;;;;5.95;3.35;;;14.00;95.50;;;;;;5108307;28;20423;-83
2021/08/18 00:45:00;;;;;;;5.68;2.90;;;14.00;95.60;;;;;;5104787;28;20028;-84
2021/08/18 00:47:26;;;;;;;4.88;2.88;;;14.00;95.60;;;;;;5110735;28;20046;-83
2021/08/18 00:49:51;;;;;;;6.78;2.88;;;14.10;95.50;;;;;;5111633;28;20326;-83
2021/08/18 00:52:17;;;;;;;8.18;3.45;;;14.00;95.60;;;;;;5105592;28;20039;-83
2021/08/18 00:54:42;;;;;;;6.22;3.58;;;14.00;95.70;;;;;;5110457;28;20057;-81
2021/08/18 00:57:08;;;;;;;5.03;3.33;;;14.00;95.70;;;;;;5112879;28;20110;-81
2021/08/18 00:59:34;;;;;;;7.50;3.83;;;14.00;95.70;;;;;;5103311;28;20092;-82
2021/08/18 01:02:00;;;;;;;5.63;4.03;;;14.00;95.70;;;;;;5103553;28;20067;-81
2021/08/18 01:04:26;;;;;;;6.78;3.75;;;14.00;95.80;;;;;;5097981;28;20124;-82
2021/08/18 01:06:52;;;;;;;5.75;3.78;;;14.00;95.70;;;;;;5102650;28;20301;-81
2021/08/18 01:09:20;;;;;;;4.88;3.38;;;14.00;95.80;;;;;;5101118;28;20032;-82
2021/08/18 01:11:48;;;;;;;4.80;3.33;;;14.00;95.80;;;;;;5103615;28;20080;-81
2021/08/18 01:14:15;;;;;;;5.53;3.78;;;13.90;95.70;;;;;;5095792;28;20043;-82
2021/08/18 01:16:44;;;;;;;8.63;3.33;;;13.90;95.80;;;;;;5078690;28;20371;-83
2021/08/18 01:19:10;;;;;;;6.70;3.72;;;13.90;95.80;;;;;;5106938;28;20423;-81
2021/08/18 01:21:40;;;;;;;5.15;3.13;;;13.90;96.10;;;;;;5104533;28;20313;-82
2021/08/18 01:24:07;;;;;;;5.55;3.35;;;13.80;96.20;;;;;;5100439;28;20036;-82
2021/08/18 01:26:32;;;;;;;6.05;4.03;;;13.80;96.20;;;;;;5110817;28;20039;-83
2021/08/18 01:29:00;;;;;;;7.03;2.78;;;13.80;96.20;;;;;;5106171;28;20048;-83
2021/08/18 01:31:26;;;;;;;5.18;3.33;;;13.80;96.30;;;;;;5104832;28;20036;-83
2021/08/18 01:33:51;;;;;;;5.63;3.63;;;13.80;96.30;;;;;;5102426;28;20046;-83
2021/08/18 01:36:18;;;;;;;6.18;3.50;;;13.80;96.40;;;;;;5100692;28;20039;-83
2021/08/18 01:38:44;;;;;;;5.30;3.17;;;13.80;96.30;;;;;;5113787;28;20040;-83
2021/08/18 01:41:09;;;;;;;5.40;2.88;;;13.70;96.40;;;;;;5104275;28;20043;-85
2021/08/18 01:43:35;;;;;;;6.15;4.40;;;13.70;96.40;;;;;;5108371;28;20048;-82
2021/08/18 01:46:00;;;;;;;5.78;3.25;;;13.80;96.40;;;;;;5099715;28;20036;-83
2021/08/18 01:48:32;;;;;;;8.77;4.22;;;13.80;96.50;;;;;;5101092;28;20290;-82
2021/08/18 01:51:01;;;;;;;5.43;3.15;;;13.70;96.60;;;;;;5111399;28;20039;-82
2021/08/18 01:53:33;;;;;;;4.93;3.28;;;13.70;96.70;;;;;;5118471;28;20031;-83
2021/08/18 01:56:03;;;;;;;4.80;2.83;;;13.70;96.80;;;;;;5097716;28;20430;-83
2021/08/18 01:58:32;;;;;;;5.65;3.95;;;13.70;96.90;;;;;;5108168;28;20044;-83
2021/08/18 02:00:58;;;;;;;7.60;3.85;;;13.70;97.00;;;;;;5104235;28;20040;-83
2021/08/18 02:03:23;;;;;;;5.90;4.45;;;13.70;97.10;;;;;;5109753;28;20058;-83
2021/08/18 02:05:49;;;;;;;6.25;3.53;;;13.70;97.10;;;;;;5105785;28;20055;-83
2021/08/18 02:08:14;;;;;;;6.00;3.80;;;13.70;97.20;;;;;;5104450;28;20085;-84
2021/08/18 02:10:40;;;;;;;6.68;3.65;;;13.70;97.20;;;;;;5096732;28;20119;-83
2021/08/18 02:13:06;;;;;;;7.05;3.90;;;13.70;97.20;;;;;;5096495;28;20070;-81
2021/08/18 02:15:34;;;;;;;8.77;3.92;;;13.60;97.30;;;;;;5099345;28;20040;-83
2021/08/18 02:18:01;;;;;;;7.40;3.83;;;13.70;97.30;;;;;;5104823;28;20043;-84
2021/08/18 02:20:30;;;;;;;7.65;3.92;;;13.70;97.30;;;;;;5115738;28;20044;-81
2021/08/18 02:22:56;;;;;;;5.75;3.85;;;13.70;97.30;;;;;;5105446;28;20032;-81
2021/08/18 02:25:22;;;;;;;6.75;3.85;;;13.80;97.30;;;;;;5116746;28;20066;-82
2021/08/18 02:27:49;;;;;;;10.10;5.00;;;13.80;97.20;;;;;;5104240;28;20035;-82
2021/08/18 02:30:18;;;;;;;6.63;3.80;;;13.80;97.10;;;;;;5108482;28;20035;-82
2021/08/18 02:32:44;;;;;;;6.38;3.58;;;13.80;97.20;;;;;;5114410;27;20039;-81
2021/08/18 02:35:11;;;;;;;7.57;3.90;;;13.80;97.20;;;;;;5102620;28;20402;-82
2021/08/18 02:37:36;;;;;;;7.05;4.35;;;13.80;97.30;;;;;;5114776;28;20035;-83
2021/08/18 02:40:04;;;;;;;5.75;3.58;;;13.80;97.30;;;;;;5112918;28;20100;-82
2021/08/18 02:42:30;;;;;;;6.47;3.63;;;13.80;97.30;;;;;;5101488;28;20571;-82
2021/08/18 02:44:55;;;;;;;9.30;4.43;;;13.90;97.30;;;;;;5098944;28;20110;-82
2021/08/18 02:47:20;;;;;;;7.38;3.90;;;13.90;97.30;;;;;;5102772;28;20132;-82
2021/08/18 02:49:46;;;;;;;5.82;4.13;;;13.90;97.30;;;;;;5111181;28;20340;-83
2021/08/18 02:52:12;;;;;;;6.45;3.63;;;14.00;97.20;;;;;;5116443;28;20172;-82
2021/08/18 02:54:37;;;;;;;6.93;3.60;;;14.00;97.10;;;;;;5106149;28;20043;-83
2021/08/18 02:57:03;;;;;;;6.45;3.75;;;14.00;97.10;;;;;;5104937;28;20461;-83
2021/08/18 02:59:29;;;;;;;8.13;4.32;;;14.10;97.10;;;;;;5106787;28;20052;-83
2021/08/18 03:01:54;;;;;;;6.75;4.22;;;14.10;96.90;;;;;;5111446;28;20123;-83
2021/08/18 03:04:20;;;;;;;5.22;3.20;;;14.10;96.90;;;;;;5113715;28;20333;-83
2021/08/18 03:06:45;;;;;;;7.28;4.03;;;14.10;97.10;;;;;;5106946;28;20036;-83
2021/08/18 03:09:10;;;;;;;5.95;3.65;;;14.10;96.90;;;;;;5120112;28;20036;-82
2021/08/18 03:11:37;;;;;;;5.93;3.92;;;14.10;96.80;;;;;;5109213;28;20040;-84
2021/08/18 03:14:03;;;;;;;5.53;3.55;;;14.10;96.80;;;;;;5119394;28;20043;-82
2021/08/18 03:16:29;;;;;;;6.75;4.38;;;14.20;96.70;;;;;;5108981;28;20067;-83
2021/08/18 03:18:54;;;;;;;5.18;3.75;;;14.20;96.60;;;;;;5100854;28;20321;-82
2021/08/18 03:21:19;;;;;;;8.05;4.53;;;14.20;96.60;;;;;;5107387;28;20051;-83
2021/08/18 03:23:45;;;;;;;8.75;3.95;;;14.10;96.60;;;;;;5105208;28;20043;-83
2021/08/18 03:26:10;;;;;;;8.00;4.45;;;14.10;96.70;;;;;;5102758;28;20032;-82
2021/08/18 03:28:36;;;;;;;6.20;3.92;;;14.20;96.70;;;;;;5104630;28;20032;-83
2021/08/18 03:31:02;;;;;;;7.05;4.03;;;14.20;96.70;;;;;;5118484;28;20039;-83
2021/08/18 03:33:27;;;;;;;5.63;3.40;;;14.20;96.70;;;;;;5109765;28;20138;-82
2021/08/18 03:35:53;;;;;;;12.18;4.78;;;14.10;96.90;;;;;;5102897;28;20039;-83
2021/08/18 03:38:20;;;;;;;7.78;3.75;;;14.10;96.90;;;;;;5099626;28;20065;-84
2021/08/18 03:40:46;;;;;;;8.27;4.10;;;14.10;97.10;;;;;;5099557;28;20397;-82
2021/08/18 03:43:12;;;;;;;6.18;4.07;;;14.00;97.20;;;;;;5110709;28;20044;-82
2021/08/18 03:45:38;;;;;;;5.28;3.50;;;14.00;97.20;;;;;;5107940;28;20035;-82
2021/08/18 03:48:04;;;;;;;7.28;3.70;;;14.00;97.30;;;;;;5113539;28;20042;-83
2021/08/18 03:50:30;;;;;;;5.28;3.13;;;14.00;97.20;;;;;;5112822;28;20324;-83
2021/08/18 03:52:55;;;;;;;6.55;3.58;;;14.10;97.30;;;;;;5104873;28;20092;-83
2021/08/18 03:55:21;;;;;;;5.45;3.35;;;14.10;97.40;;;;;;5106575;28;20381;-84
2021/08/18 03:57:46;;;;;;;7.03;4.35;;;14.10;97.30;;;;;;5103538;28;20165;-83
2021/08/18 04:00:15;;;;;;;5.88;2.80;;;14.20;97.20;;;;;;5110561;28;20058;-84
2021/08/18 04:02:41;;;;;;;5.65;3.30;;;14.30;97.10;;;;;;5111171;28;20150;-83
2021/08/18 04:05:08;;;;;;;5.57;3.33;;;14.30;97.20;;;;;;5107120;28;20032;-83
2021/08/18 04:07:33;;;;;;;4.15;2.70;;;14.40;97.00;;;;;;5114318;28;20106;-83
2021/08/18 04:09:59;;;;;;;5.20;3.13;;;14.50;96.70;;;;;;5112924;28;20338;-83
2021/08/18 04:12:24;;;;;;;5.10;3.20;;;14.50;96.70;;;;;;5114042;28;20036;-83
2021/08/18 04:14:50;;;;;;;6.63;3.17;;;14.60;96.70;;;;;;5112543;28;20040;-83
2021/08/18 04:17:15;;;;;;;5.50;2.95;;;14.60;96.40;;;;;;5093685;28;20302;-84
2021/08/18 04:19:41;;;;;;;4.95;2.85;;;14.70;96.40;;;;;;5095689;28;20031;-84
2021/08/18 04:22:07;;;;;;;6.15;3.20;;;14.70;96.30;;;;;;5101662;28;20059;-83
2021/08/18 04:24:35;;;;;;;5.15;3.28;;;14.80;96.40;;;;;;5092571;28;20044;-84
2021/08/18 04:27:00;;;;;;;4.40;2.70;;;14.80;96.30;;;;;;5104394;28;20043;-84
2021/08/18 04:29:26;;;;;;;4.10;2.42;;;14.90;96.20;;;;;;5111165;28;20031;-84
2021/08/18 04:31:51;;;;;;;3.95;3.05;;;14.90;96.20;;;;;;5114222;28;20093;-83
2021/08/18 04:34:17;;;;;;;4.63;3.00;;;14.90;96.10;;;;;;5106266;28;20040;-83
2021/08/18 04:36:42;;;;;;;5.00;2.97;;;15.00;96.10;;;;;;5104180;28;20085;-83
2021/08/18 04:39:08;;;;;;;5.70;2.80;;;15.00;96.00;;;;;;5089629;28;20119;-83
2021/08/18 04:41:34;;;;;;;5.32;3.15;;;15.00;96.10;;;;;;5115422;28;20047;-83
2021/08/18 04:43:59;;;;;;;3.17;2.17;;;15.00;96.00;;;;;;5102523;28;20446;-84
2021/08/18 04:46:25;;;;;;;5.68;2.55;;;15.10;96.00;;;;;;5095526;28;20394;-83
2021/08/18 04:48:50;;;;;;;5.22;2.50;;;15.10;96.10;;;;;;5098322;28;20119;-83
2021/08/18 04:51:16;;;;;;;5.03;2.50;;;15.20;96.00;;;;;;5095483;28;20040;-83
2021/08/18 04:53:41;;;;;;;3.95;2.72;;;15.20;95.90;;;;;;5093792;28;20401;-83
2021/08/18 04:56:07;;;;;;;5.03;2.70;;;15.30;95.70;;;;;;5093445;28;20412;-82
2021/08/18 04:58:32;;;;;;;4.40;2.25;;;15.30;95.70;;;;;;5099322;28;20047;-83
2021/08/18 05:00:58;;;;;;;3.40;2.67;;;15.40;95.60;;;;;;5108025;28;20043;-83
2021/08/18 05:03:23;;;;;;;3.90;2.45;;;15.40;95.80;;;;;;5103171;28;20079;-82
2021/08/18 05:05:49;;;;;;;5.25;2.47;;;15.50;95.70;;;;;;5114510;28;20035;-83
2021/08/18 05:08:14;;;;;;;3.97;2.45;;;15.50;95.50;;;;;;5109794;28;20112;-84
2021/08/18 05:10:41;;;;;;;4.70;2.20;;;15.60;95.60;;;;;;5100674;28;20074;-82
2021/08/18 05:13:06;;;;;;;2.83;1.75;;;15.60;95.70;;;;;;5111353;28;20120;-84
2021/08/18 05:15:32;;;;;;;4.18;2.00;;;15.70;95.70;;;;;;5112151;28;20666;-84
2021/08/18 05:17:57;;;;;;;5.50;2.80;;;15.80;95.40;;;;;;5096206;28;20036;-84
2021/08/18 05:20:23;;;;;;;5.85;1.90;;;15.80;95.10;;;;;;5116818;28;20423;-83
2021/08/18 05:22:49;;;;;;;3.50;2.50;;;15.70;95.30;;;;;;5105997;28;20039;-83
2021/08/18 05:25:17;;;;;;;4.70;2.72;;;15.80;95.40;;;;;;5109688;28;20070;-83
2021/08/18 05:27:43;;;;;;;3.45;2.05;;;15.90;95.50;;;;;;5110501;28;20405;-83
2021/08/18 05:30:11;;;;;;;3.30;2.03;;;15.90;95.20;;;;;;5109702;28;20046;-84
2021/08/18 05:32:38;;;;;;;9.70;2.05;;;16.00;95.10;;;;;;5100903;28;20035;-84
2021/08/18 05:35:06;;;;;;;3.30;1.85;;;16.00;94.90;;;;;;5104570;28;20043;-84
2021/08/18 05:37:31;;;;;;;3.50;2.20;;;16.00;95.00;;;;;;5092459;28;20036;-83
2021/08/18 05:39:57;;;;;;;3.83;1.77;;;16.00;95.00;;;;;;5096359;28;20094;-83
2021/08/18 05:42:22;;;;;;;3.78;2.38;;;16.00;95.40;;;;;;5081902;28;20074;-84
2021/08/18 05:44:48;;;;;;;3.25;1.90;;;16.10;95.00;;;;;;5073465;28;20394;-84
2021/08/18 05:47:14;;;;;;;3.38;2.28;;;16.20;95.10;;;;;;5074144;28;20115;-83
2021/08/18 05:49:39;;;;;;;6.15;2.33;;;16.20;94.70;;;;;;5092067;28;20332;-84
2021/08/18 05:52:05;;;;;;;3.35;2.30;;;16.30;94.80;;;;;;5082814;28;20279;-84
2021/08/18 05:54:30;;;;;;;5.18;1.98;;;16.30;94.70;;;;;;5077227;28;20024;-84
2021/08/18 05:56:56;;;;;;;5.75;1.80;;;16.40;94.70;;;;;;5100103;28;20110;-84
2021/08/18 05:59:21;;;;;;;2.72;2.10;;;16.40;94.40;;;;;;5104762;28;20043;-84
2021/08/18 06:01:47;;;;;;;3.67;1.73;;;16.40;94.60;;;;;;5105914;28;20040;-84
2021/08/18 06:04:12;;;;;;;4.65;2.15;;;16.40;94.50;;;;;;5093424;28;20048;-83
2021/08/18 06:06:38;;;;;;;3.47;1.77;;;16.50;94.60;;;;;;5091353;28;20031;-84
2021/08/18 06:09:03;;;;;;;3.78;1.58;;;16.50;94.30;;;;;;5093905;28;20039;-84
2021/08/18 06:11:29;;;;;;;3.17;1.70;;;16.60;94.50;;;;;;5093487;28;20345;-84
2021/08/18 06:13:54;;;;;;;2.58;1.55;;;16.60;94.40;;;;;;5092601;28;20048;-83
2021/08/18 06:16:21;;;;;;;3.88;2.17;;;16.70;94.20;;;;;;5093253;28;20125;-83
2021/08/18 06:18:47;;;;;;;2.90;1.70;;;16.70;94.40;;;;;;5096777;28;20700;-83
2021/08/18 06:21:13;;;;;;;2.92;2.10;;;16.80;94.00;;;;;;5109158;28;20062;-83
2021/08/18 06:23:38;;;;;;;2.45;1.88;;;16.80;93.70;;;;;;5109795;28;20501;-82
2021/08/18 06:26:04;;;;;;;2.80;1.50;;;16.80;94.40;;;;;;5097291;28;20036;-82
2021/08/18 06:28:29;;;;;;;4.20;1.85;;;16.80;93.90;;;;;;5102352;28;20703;-82
2021/08/18 06:30:55;;;;;;;3.13;1.67;;;16.90;93.80;;;;;;5107697;28;20036;-83
2021/08/18 06:33:20;;;;;;;2.97;1.52;;;16.90;94.10;;;;;;5100604;28;20392;-83
2021/08/18 06:35:46;;;;;;;3.17;1.85;;;16.90;94.00;;;;;;5094984;28;21650;-83
2021/08/18 06:38:11;;;;;;;2.40;1.90;;;16.90;94.10;;;;;;5112466;28;20036;-83
2021/08/18 06:40:38;;;;;;;4.10;1.70;;;17.00;94.10;;;;;;5113993;28;20318;-83
2021/08/18 06:43:03;;;;;;;4.97;1.88;;;17.00;94.10;;;;;;5113212;28;20040;-84
2021/08/18 06:45:29;;;;;;;2.53;1.75;;;17.00;94.20;;;;;;5099406;28;20395;-82
2021/08/18 06:47:55;;;;;;;2.55;1.50;;;17.00;94.60;;;;;;5099611;28;20031;-82
2021/08/18 06:50:21;;;;;;;3.15;2.13;;;17.00;94.70;;;;;;5093373;28;20032;-83
2021/08/18 06:52:46;;;;;;;3.38;1.88;;;17.00;95.10;;;;;;5098559;28;20050;-83
2021/08/18 06:55:12;;;;;;;3.50;1.70;;;16.90;95.70;;;;;;5106328;28;20309;-82
2021/08/18 06:57:38;;;;;;;3.72;1.98;;;16.90;95.90;;;;;;5099970;28;20051;-82
2021/08/18 07:00:05;;;;;;;2.72;2.08;;;16.80;96.40;;;;;;5116140;28;20088;-82
2021/08/18 07:02:30;;;;;;;3.50;1.65;;;16.70;96.80;;;;;;5115289;28;20067;-82
2021/08/18 07:04:56;;;;;;;2.63;1.75;;;16.70;97.10;;;;;;5107010;28;20032;-82
2021/08/18 07:07:21;;;;;;;2.42;1.23;;;16.70;97.30;;;;;;5104437;28;20215;-82
2021/08/18 07:09:47;;;;;;;2.65;1.67;;;16.60;97.50;;;;;;5112128;27;20047;-83
2021/08/18 07:12:12;;;;;;;3.05;1.80;;;16.60;97.70;;;;;;5094802;28;20071;-83
2021/08/18 07:14:38;;;;;;;3.10;1.88;;;16.50;98.10;;;;;;5100399;28;20043;-80
2021/08/18 07:17:03;;;;;;;3.45;1.83;;;16.50;98.20;;;;;;5097094;28;20044;-84
2021/08/18 07:19:29;;;;;;;2.40;1.40;;;16.50;98.30;;;;;;5101118;28;20136;-83
2021/08/18 07:21:54;;;;;;;3.63;1.60;;;16.60;98.50;;;;;;5098370;28;20036;-82
2021/08/18 07:24:20;;;;;;;5.25;2.17;;;16.70;98.40;;;;;;5085985;28;20468;-83
2021/08/18 07:26:46;;;;;;;3.30;1.70;;;16.80;98.10;;;;;;5100507;28;20031;-83
2021/08/18 07:29:11;;;;;;;3.15;1.70;;;16.90;98.50;;;;;;5095105;28;20047;-84
2021/08/18 07:31:37;;;;;;;4.40;1.70;;;17.10;97.80;;;;;;5090416;28;20067;-83
2021/08/18 07:34:02;;;;;;;2.08;1.30;;;17.20;98.10;;;;;;5098458;28;20054;-82
2021/08/18 07:36:28;;;;;;;2.97;1.70;;;17.30;97.60;;;;;;5090573;28;20040;-83
2021/08/18 07:38:53;;;;;;;2.67;1.60;;;17.30;96.90;;;;;;5102548;28;20067;-83
2021/08/18 07:41:19;;;;;;;3.72;1.90;;;17.40;96.90;;;;;;5115711;28;20124;-83
2021/08/18 07:43:44;;;;;;;2.50;1.42;;;17.50;96.60;;;;;;5112458;28;20043;-82
2021/08/18 07:46:10;;;;;;;1.90;1.55;;;17.70;97.00;;;;;;5096606;28;20471;-83
2021/08/18 07:48:36;;;;;;;4.63;1.70;;;17.80;96.60;;;;;;5094949;28;20067;-83
2021/08/18 07:51:02;;;;;;;2.17;1.25;;;17.90;96.60;;;;;;5095863;28;20298;-82
2021/08/18 07:53:28;;;;;;;2.70;1.83;;;18.00;95.80;;;;;;5100863;28;20125;-82
2021/08/18 07:55:53;;;;;;;3.03;1.77;;;18.10;95.70;;;;;;5095072;28;20043;-83
2021/08/18 07:58:19;;;;;;;2.17;1.33;;;18.20;95.40;;;;;;5095267;28;20047;-81
2021/08/18 08:00:44;;;;;;;3.22;1.58;;;18.20;94.90;;;;;;5111696;28;20040;-83
2021/08/18 08:03:10;;;;;;;2.08;1.50;;;18.20;94.60;;;;;;5114011;28;20063;-82
2021/08/18 08:05:36;;;;;;;2.05;1.42;;;18.20;94.70;;;;;;5096016;28;20073;-82
2021/08/18 08:08:02;;;;;;;5.28;2.00;;;18.10;95.00;;;;;;5104399;28;20089;-82
2021/08/18 08:10:28;;;;;;;2.35;1.70;;;18.10;95.00;;;;;;5114181;28;20047;-82
2021/08/18 08:12:54;;;;;;;1.80;1.20;;;18.00;95.00;;;;;;5099223;28;20280;-82
2021/08/18 08:15:19;;;;;;;1.42;1.17;;;17.90;95.60;;;;;;5115775;28;20032;-82
2021/08/18 08:17:45;;;;;;;1.73;1.35;;;17.90;95.80;;;;;;5101688;28;20028;-82
2021/08/18 08:20:11;;;;;;;3.05;1.85;;;18.00;95.80;;;;;;5103230;28;20040;-83
2021/08/18 08:22:37;;;;;;;2.13;1.38;;;18.10;95.40;;;;;;5101254;28;20058;-82
2021/08/18 08:25:04;;;;;;;2.90;1.58;;;18.20;95.40;;;;;;5094379;28;20074;-82
2021/08/18 08:27:30;;;;;;;1.80;1.13;;;18.40;94.90;;;;;;5108069;28;20082;-83
2021/08/18 08:29:55;;;;;;;1.85;1.20;;;18.50;94.70;;;;;;5111328;28;20059;-82
2021/08/18 08:32:22;;;;;;;2.42;1.20;;;18.70;95.00;;;;;;5096637;28;20024;-82
2021/08/18 08:34:48;;;;;;;2.22;1.35;;;18.80;93.90;;;;;;5111820;28;20043;-83
2021/08/18 08:37:13;;;;;;;1.42;1.10;;;18.90;94.40;;;;;;5095297;28;20035;-83
2021/08/18 08:39:39;;;;;;;1.73;0.98;;;19.00;94.00;;;;;;5114752;28;20061;-83
2021/08/18 08:42:05;;;;;;;1.88;1.38;;;19.10;93.60;;;;;;5112600;28;20356;-83
2021/08/18 08:44:32;;;;;;;1.30;0.90;;;19.10;93.70;;;;;;5073455;28;20083;-82
2021/08/18 08:46:58;;;;;;;1.80;1.20;;;19.20;93.40;;;;;;5083146;28;20294;-82
2021/08/18 08:49:24;;;;;;;1.67;0.90;;;19.30;93.50;;;;;;5100320;28;20040;-83
2021/08/18 08:51:52;;;;;;;1.35;0.82;;;19.40;93.50;;;;;;5105914;28;20054;-83
2021/08/18 08:54:18;;;;;;;1.20;0.80;;;19.40;92.80;;;;;;5092429;28;20705;-83
2021/08/18 08:56:44;;;;;;;2.03;0.85;;;19.40;92.40;;;;;;5103475;28;20036;-83
2021/08/18 08:59:10;;;;;;;2.15;1.02;;;19.40;92.40;;;;;;5094024;28;20051;-83
2021/08/18 09:01:57;;;;;;;1.50;0.75;;;19.40;92.60;;;;;;5094051;28;20123;-82
2021/08/18 09:04:28;;;;;;;1.63;0.90;;;19.30;92.70;;;;;;5108731;27;20048;-83
2021/08/18 09:07:03;;;;;;;2.92;0.68;;;19.30;93.10;;;;;;5083243;28;20141;-83
2021/08/18 09:09:29;;;;;;;1.02;0.77;;;19.30;92.60;;;;;;5095114;28;20093;-83
2021/08/18 09:12:12;;;;;;;1.40;1.00;;;19.40;93.00;;;;;;5088778;28;20032;-83
2021/08/18 09:14:38;;;;;;;1.60;0.98;;;19.40;93.00;;;;;;5084583;28;20123;-83
2021/08/18 09:17:36;;;;;;;1.15;0.82;;;19.50;92.60;;;;;;5093830;28;20461;-83
2021/08/18 09:20:04;;;;;;;1.10;0.85;;;19.60;92.50;;;;;;5082405;28;20111;-84
2021/08/18 09:22:30;;;;;;;1.35;0.90;;;19.70;92.60;;;;;;5091998;28;20063;-84
2021/08/18 09:25:18;;;;;;;1.25;1.00;;;19.90;92.30;;;;;;5101403;28;20039;-84
2021/08/18 09:27:46;;;;;;;1.83;1.27;;;20.00;92.10;;;;;;5106166;28;20040;-84
2021/08/18 09:30:27;;;;;;;1.33;0.90;;;20.20;91.80;;;;;;5105003;28;20071;-84
2021/08/18 09:32:54;;;;;;;1.70;0.90;;;20.20;91.90;;;;;;5084594;28;20043;-83
2021/08/18 09:35:22;;;;;;;1.33;1.00;;;20.30;91.50;;;;;;5098770;28;20405;-84
2021/08/18 09:37:57;;;;;;;1.38;0.90;;;20.30;91.70;;;;;;5111014;28;20577;-83
2021/08/18 09:40:29;;;;;;;1.23;0.80;;;20.30;91.20;;;;;;5100106;28;20035;-83
2021/08/18 09:43:12;;;;;;;2.25;0.70;;;20.30;91.40;;;;;;5113652;28;20035;-84
2021/08/18 09:45:40;;;;;;;1.10;0.70;;;20.30;91.50;;;;;;5104665;28;20036;-82
2021/08/18 09:48:07;;;;;;;2.38;0.90;;;20.10;91.50;;;;;;5076503;28;20319;-83
2021/08/18 09:50:44;;;;;;;1.65;0.88;;;20.10;91.80;;;;;;5088422;28;20089;-83
2021/08/18 09:53:13;;;;;;;0.95;0.70;;;19.90;91.60;;;;;;5095634;28;20118;-84
2021/08/18 09:55:47;;;;;;;1.40;0.55;;;19.90;91.90;;;;;;5097352;28;20390;-82
2021/08/18 09:58:21;;;;;;;2.05;1.10;;;19.80;91.80;;;;;;5103284;28;20039;-82
2021/08/18 10:00:47;;;;;;;0.70;0.60;;;19.80;91.80;;;;;;5093043;28;20102;-83
2021/08/18 10:03:13;;;;;;;1.13;0.88;;;19.90;91.50;;;;;;5094934;28;20533;-85
2021/08/18 10:05:39;;;;;;;0.80;0.50;;;20.00;91.30;;;;;;5111187;28;20088;-85
2021/08/18 10:08:05;;;;;;;1.48;0.60;;;20.10;91.60;;;;;;5100500;28;20044;-83
2021/08/18 10:10:31;;;;;;;1.33;0.80;;;20.30;90.60;;;;;;5112496;28;20424;-82
2021/08/18 10:12:59;;;;;;;2.85;1.67;;;20.40;90.30;;;;;;5111936;28;20040;-82
2021/08/18 10:15:25;;;;;;;1.13;0.80;;;20.40;90.30;;;;;;5113354;28;20743;-82
2021/08/18 10:17:51;;;;;;;1.08;0.85;;;20.40;91.00;;;;;;5104002;28;20113;-82
2021/08/18 10:20:21;;;;;;;1.20;0.82;;;20.50;90.00;;;;;;5106805;28;20039;-84
2021/08/18 10:22:58;;;;;;;1.20;0.63;;;20.40;90.10;;;;;;5108380;28;20035;-82
2021/08/18 10:25:44;;;;;;;1.75;1.13;;;20.40;89.10;;;;;;5093248;28;20024;-82
2021/08/18 10:28:09;;;;;;;1.70;1.15;;;20.40;88.60;;;;;;5072924;28;20048;-83
2021/08/18 10:30:53;;;;;;;1.70;0.80;;;20.30;88.80;;;;;;5075077;28;20036;-81
2021/08/18 10:33:53;;;;;;;1.92;1.10;;;20.10;92.10;;;;;;5073939;28;20098;-83
2021/08/18 10:36:40;;;;;;;0.88;0.70;;;19.90;92.70;;;;;;5075263;28;20115;-81
2021/08/18 10:39:18;;;;;;;0.77;0.57;;;19.50;92.80;;;;;;5077085;28;20036;-85
2021/08/18 10:42:14;;;;;;;2.92;0.90;;;19.20;93.50;;;;;;5077202;28;20040;-85
2021/08/18 10:44:50;;;;;;;1.35;0.98;;;19.00;93.70;;;;;;5060745;28;20044;-82
2021/08/18 10:47:20;;;;;;;1.02;0.65;;;18.80;93.20;;;;;;5076689;28;20558;-82
2021/08/18 10:50:24;;;;;;;0.52;0.50;;;18.70;93.30;;;;;;5077209;28;20028;-81
2021/08/18 10:52:50;;;;;;;2.45;0.88;;;18.70;93.70;;;;;;5091080;28;20040;-82
2021/08/18 10:55:16;;;;;;;1.60;0.80;;;18.70;92.70;;;;;;5102155;28;20067;-83
2021/08/18 10:58:04;;;;;;;0.50;0.47;;;18.70;92.70;;;;;;5101274;28;20595;-84
2021/08/18 11:00:38;;;;;;;1.23;0.70;;;18.70;93.40;;;;;;5112250;28;20051;-84
2021/08/18 11:03:07;;;;;;;0.70;0.57;;;18.90;92.80;;;;;;5104084;28;20569;-82
2021/08/18 11:05:36;;;;;;;1.02;0.40;;;18.90;93.00;;;;;;5101415;28;20044;-82
2021/08/18 11:08:18;;;;;;;3.10;0.85;;;19.10;92.70;;;;;;5097794;28;20313;-83
2021/08/18 11:11:05;;;;;;;1.10;0.70;;;19.20;92.60;;;;;;5097843;28;20053;-83
2021/08/18 11:14:07;;;;;;;3.00;1.20;;;19.30;92.40;;;;;;5095972;28;20028;-86
2021/08/18 11:16:32;;;;;;;0.90;0.60;;;19.60;92.30;;;;;;5082679;28;20070;-85
2021/08/18 11:19:00;;;;;;;1.20;0.50;;;19.90;92.20;;;;;;5097883;28;20044;-85
2021/08/18 11:21:29;;;;;;;1.13;0.70;;;20.20;91.10;;;;;;5097365;28;20309;-85
2021/08/18 11:23:58;;;;;;;2.90;0.73;;;20.40;90.50;;;;;;5096489;28;20445;-85
2021/08/18 11:26:27;;;;;;;1.60;0.75;;;20.50;90.10;;;;;;5097371;28;20036;-85
2021/08/18 11:29:07;;;;;;;0.95;0.70;;;20.60;89.90;;;;;;5099492;28;20036;-86
2021/08/18 11:31:45;;;;;;;3.10;0.90;;;20.80;90.60;;;;;;5096895;28;20592;-84
2021/08/18 11:34:18;;;;;;;2.50;0.70;;;21.00;91.10;;;;;;5096407;28;20036;-85
2021/08/18 11:36:44;;;;;;;0.95;0.80;;;21.30;88.70;;;;;;5095582;28;20286;-85
2021/08/18 11:39:10;;;;;;;1.42;1.05;;;21.50;88.10;;;;;;5097634;28;20409;-85
2021/08/18 11:41:42;;;;;;;1.83;0.80;;;21.50;87.60;;;;;;5108976;28;20040;-87
2021/08/18 11:44:09;;;;;;;1.75;0.82;;;21.60;85.00;;;;;;5106721;28;20113;-88
2021/08/18 11:46:34;;;;;;;1.35;0.77;;;21.70;85.50;;;;;;5096603;28;20057;-85
2021/08/18 11:49:08;;;;;;;1.77;0.73;;;21.70;84.90;;;;;;5109338;28;20036;-85
2021/08/18 11:51:36;;;;;;;0.75;0.65;;;21.60;83.90;;;;;;5115021;28;20066;-87
2021/08/18 11:54:02;;;;;;;0.88;0.52;;;21.50;84.20;;;;;;5107771;28;20036;-86
2021/08/18 11:56:30;;;;;;;2.20;1.05;;;21.60;85.10;;;;;;5095893;28;20508;-86
2021/08/18 11:59:02;;;;;;;0.90;0.60;;;21.80;85.50;;;;;;5095124;28;20047;-85
2021/08/18 12:01:28;;;;;;;1.00;0.60;;;21.90;84.70;;;;;;5095697;28;20313;-86
2021/08/18 12:03:54;;;;;;;1.05;0.52;;;21.70;84.90;;;;;;5096418;28;20043;-86
2021/08/18 12:06:37;;;;;;;0.82;0.73;;;21.70;86.40;;;;;;5107548;28;20443;-85
2021/08/18 12:09:18;;;;;;;0.85;0.63;;;21.80;85.30;;;;;;5095598;28;20079;-86
2021/08/18 12:11:44;;;;;;;2.10;1.33;;;21.80;84.20;;;;;;5113951;28;20031;-85
2021/08/18 12:14:15;;;;;;;4.93;0.70;;;21.80;84.70;;;;;;5117686;28;20118;-86
2021/08/18 12:16:42;;;;;;;0.93;0.77;;;21.70;84.50;;;;;;5124162;28;20130;-84
2021/08/18 12:19:13;;;;;;;1.30;0.70;;;21.60;84.40;;;;;;5117466;28;20035;-85
2021/08/18 12:21:39;;;;;;;5.00;0.68;;;21.50;84.10;;;;;;5115061;28;20437;-85
2021/08/18 12:24:11;;;;;;;1.20;0.77;;;21.50;85.10;;;;;;5088507;28;20058;-85
2021/08/18 12:26:38;;;;;;;2.20;0.80;;;21.40;83.80;;;;;;5114746;27;20039;-85
2021/08/18 12:29:09;;;;;;;1.00;0.80;;;21.30;84.20;;;;;;5116532;28;20028;-84
2021/08/18 12:32:05;;;;;;;2.53;1.17;;;21.30;84.60;;;;;;5102946;28;20051;-84
2021/08/18 12:34:42;;;;;;;1.05;0.70;;;21.10;83.40;;;;;;5093584;28;20131;-84
2021/08/18 12:37:10;;;;;;;1.10;0.88;;;21.00;84.90;;;;;;5091697;28;20036;-83
2021/08/18 12:39:44;;;;;;;1.35;0.90;;;20.80;84.90;;;;;;5088595;28;20042;-84
2021/08/18 12:42:19;;;;;;;1.60;0.88;;;20.70;85.50;;;;;;5101153;28;20035;-84
2021/08/18 12:44:44;;;;;;;0.85;0.63;;;20.60;85.70;;;;;;5094758;28;20125;-84
2021/08/18 12:47:13;;;;;;;1.40;1.05;;;20.60;86.20;;;;;;5100449;28;20196;-84
2021/08/18 12:49:49;;;;;;;3.92;0.95;;;20.70;85.30;;;;;;5121340;28;20038;-85
2021/08/18 12:52:16;;;;;;;1.42;0.80;;;20.50;84.70;;;;;;5079474;28;20032;-84